Kingston, Georgia
Current Conditions -  °F | °C
As of 5:15 PM on Sunday 23 Nov 2014 (Local Time) from KVPC Reporting Station
Light Rain Light Rain  
Wind Chill: 52°   Ceiling: 5000
Heat Index: 52°   Visibility: 10mi
Dew Point: 49°   Wind: 9mph
Humidity: 89%   Direction: 130°SE
Pressure: 29.68"   Gusts: NA
Location:  34.24°N, 84.94°W
Report Text: KVPC 232215Z AUTO 13008KT 090V190 10SM -RA FEW008 BKN050 OVC110 11/09 A2968 RMK AO2 P0012 T01110094
Loading
Personal Weather Stations






























Interactive Weather Map New forecast layout! Learn more

10-Day Weather Forecast

Advertisements
Track Severe Weather on mobile